Arcata, California
Current Conditions -  °F | °C
As of 10:53 AM on Saturday 25 Oct 2014 (Local Time) from KACV Reporting Station
Overcast Overcast  
Wind Chill: 61°   Ceiling: 2600
Heat Index: 61°   Visibility: 10mi
Dew Point: 56°   Wind: 17mph
Humidity: 83%   Direction: 190°S
Pressure: 29.74"   Gusts: 32mph
Location:  40.87°N, 124.08°W
Report Text: KACV 251753Z AUTO 19015G28KT 10SM BKN026 BKN032 OVC048 16/13 A2974 RMK AO2 PK WND 18029/1738 RAB08E29 SLP075 P0003 60014 T01610133 10167 20144 53044
Loading
Personal Weather Stations






























Interactive Weather Map New forecast layout! Learn more

10-Day Weather Forecast

Advertisements
Track Severe Weather on mobile